This is the latest recevied weather packets stored in our database for station/object Krauchnws. If no packets are shown the sender has not sent any weather packets the latest 10 day(s).
| Time | Temp. | Humidity | Pressure | Rain* | Wind** | Luminosity | Snow |
|---|---|---|---|---|---|---|---|
| 1777809730 | 23.33° C | 32% | 1012.3 hPa | 0 mm | - | - | - |
| 1777807932 | 22.22° C | 41% | 1012.5 hPa | 0 mm | - | - | - |
| 1777806130 | 21.67° C | 44% | 1012.7 hPa | 0 mm | - | - | - |
| 1777804332 | 22.22° C | 43% | 1013 hPa | 0 mm | - | - | - |
| 1777802532 | 21.11° C | 48% | 1013.4 hPa | 0 mm | - | - | - |
| 1777800731 | 20° C | 51% | 1013.6 hPa | 0 mm | - | - | - |
| 1777798930 | 18.89° C | 55% | 1013.9 hPa | 0 mm | - | - | - |
| 1777797132 | 17.78° C | 57% | 1014 hPa | 0 mm | - | - | - |
| 1777795332 | 16.67° C | 68% | 1014.2 hPa | 0 mm | - | - | - |
| 1777793531 | 15° C | 68% | 1014.1 hPa | 0 mm | - | - | - |
| 1777791731 | 13.33° C | 72% | 1014.1 hPa | 0 mm | - | - | - |
| 1777789931 | 11.67° C | 75% | 1014.1 hPa | 0 mm | - | - | - |
| 1777788131 | 10° C | 79% | 1014.1 hPa | 0 mm | - | - | - |
| 1777786331 | 7.78° C | 85% | 1014.1 hPa | 0 mm | - | - | - |
| 1777784533 | 6.11° C | 89% | 1014.1 hPa | 0 mm | - | - | - |
| 1777782731 | 6.11° C | 88% | 1014.2 hPa | 0 mm | - | - | - |
| 1777780930 | 6.11° C | 87% | 1014.2 hPa | 0 mm | - | - | - |
| 1777779131 | 6.11° C | 88% | 1014.3 hPa | 0 mm | - | - | - |
| 1777777331 | 6.67° C | 88% | 1014.3 hPa | 0 mm | - | - | - |
| 1777775531 | 7.78° C | 84% | 1014.4 hPa | 0 mm | - | - | - |
| 1777773731 | 7.78° C | 83% | 1014.5 hPa | 0 mm | - | - | - |
| 1777771931 | 7.78° C | 83% | 1014.5 hPa | 0 mm | - | - | - |
| 1777770132 | 8.89° C | 81% | 1014.5 hPa | 0 mm | - | - | - |
| 1777768329 | 8.89° C | 80% | 1014.7 hPa | 0 mm | - | - | - |
| 1777766530 | 10° C | 77% | 1015 hPa | 0 mm | - | - | - |
* Rain since midnight (hover to see other rain measurements)
** Current wind speed in m/s (hover to see current wind gust speed)